createdAt,value
2022-08-31T00:00:30.411Z,99.90
2022-08-31T00:03:15.830Z,99.90
2022-08-31T00:05:43.341Z,99.90
2022-08-31T00:08:10.381Z,99.90
2022-08-31T00:10:41.119Z,99.90
2022-08-31T00:13:10.314Z,99.90
2022-08-31T00:15:37.256Z,99.90
2022-08-31T00:18:06.169Z,99.90
2022-08-31T00:20:34.840Z,99.90
2022-08-31T00:23:04.213Z,99.90
2022-08-31T00:25:31.722Z,99.90
2022-08-31T00:27:58.755Z,99.90
2022-08-31T00:30:26.290Z,99.90
2022-08-31T00:32:53.189Z,99.90
2022-08-31T00:35:24.237Z,99.90
2022-08-31T00:37:51.105Z,99.90
2022-08-31T00:40:18.031Z,99.90
2022-08-31T00:42:45.060Z,99.90
2022-08-31T00:45:11.958Z,99.90
2022-08-31T00:47:38.888Z,99.90
2022-08-31T00:50:09.344Z,99.90
2022-08-31T00:52:39.803Z,99.90
2022-08-31T00:55:34.925Z,99.90
2022-08-31T00:58:09.529Z,99.90
2022-08-31T01:00:37.237Z,99.90
2022-08-31T01:03:06.923Z,99.90
2022-08-31T01:05:34.940Z,99.90
2022-08-31T01:08:03.557Z,99.90
2022-08-31T01:10:34.996Z,99.90
2022-08-31T01:13:02.759Z,99.90
2022-08-31T01:15:31.061Z,99.90
2022-08-31T01:18:01.877Z,99.90
2022-08-31T01:20:48.576Z,99.90
2022-08-31T01:23:21.143Z,99.90
2022-08-31T01:25:49.401Z,99.90
2022-08-31T01:28:16.689Z,99.90
2022-08-31T01:30:44.376Z,99.90
2022-08-31T01:33:13.265Z,99.90
2022-08-31T01:35:44.548Z,99.90
2022-08-31T01:38:13.232Z,99.90
2022-08-31T01:40:49.556Z,99.90
2022-08-31T01:43:16.765Z,99.90
2022-08-31T01:45:44.268Z,99.90
2022-08-31T01:48:11.791Z,99.90
2022-08-31T01:50:39.093Z,99.90
2022-08-31T01:53:06.138Z,99.90
2022-08-31T01:55:33.110Z,99.90
2022-08-31T01:58:00.802Z,99.90
2022-08-31T02:00:28.855Z,99.90
2022-08-31T02:03:01.131Z,99.90
2022-08-31T02:05:28.407Z,99.90
2022-08-31T02:07:56.411Z,99.90
2022-08-31T02:10:24.408Z,99.90
2022-08-31T02:12:51.424Z,99.90
2022-08-31T02:15:19.191Z,99.90
2022-08-31T02:17:46.474Z,99.90
2022-08-31T02:20:14.341Z,99.90
2022-08-31T02:22:41.547Z,99.90
2022-08-31T02:25:09.665Z,99.90
2022-08-31T02:27:37.633Z,99.90
2022-08-31T02:30:11.214Z,99.90
2022-08-31T02:32:38.189Z,99.90
2022-08-31T02:35:05.914Z,99.90
2022-08-31T02:37:32.813Z,99.90
2022-08-31T02:40:02.627Z,99.90
2022-08-31T02:42:40.798Z,99.90
2022-08-31T02:45:18.981Z,99.90
2022-08-31T02:47:45.938Z,99.90
2022-08-31T02:50:12.986Z,99.90
2022-08-31T02:52:39.932Z,99.90
2022-08-31T02:55:07.341Z,99.90
2022-08-31T02:57:34.291Z,99.90
2022-08-31T03:00:01.177Z,99.90
2022-08-31T03:02:32.085Z,99.90
2022-08-31T03:05:02.235Z,99.90
2022-08-31T03:07:29.186Z,99.90
2022-08-31T03:09:56.568Z,99.90
2022-08-31T03:12:23.438Z,99.90
2022-08-31T03:14:50.349Z,99.90
2022-08-31T03:17:17.239Z,99.90
2022-08-31T03:19:44.274Z,99.90
2022-08-31T03:22:13.296Z,99.90
2022-08-31T03:24:40.531Z,99.90
2022-08-31T03:27:07.659Z,99.90
2022-08-31T03:29:34.785Z,99.90
2022-08-31T03:32:02.002Z,99.90
2022-08-31T03:34:28.936Z,99.90
2022-08-31T03:36:55.873Z,99.90
2022-08-31T03:39:22.813Z,99.90
2022-08-31T03:41:49.730Z,99.90
2022-08-31T03:44:20.068Z,99.90
2022-08-31T03:46:48.034Z,99.90
2022-08-31T03:49:15.004Z,99.90
2022-08-31T03:51:41.937Z,99.90
2022-08-31T03:54:08.781Z,99.90
2022-08-31T03:56:35.735Z,99.90
2022-08-31T03:59:02.668Z,99.90
2022-08-31T04:01:29.877Z,99.90
2022-08-31T04:03:56.953Z,99.90
2022-08-31T04:06:23.826Z,99.90
2022-08-31T04:08:50.726Z,99.90
2022-08-31T04:11:19.807Z,99.90
2022-08-31T04:14:07.191Z,99.90
2022-08-31T04:16:36.443Z,99.90
2022-08-31T04:19:04.765Z,99.90
2022-08-31T04:21:34.918Z,99.90
2022-08-31T04:24:02.624Z,99.90
2022-08-31T04:26:32.885Z,99.90
2022-08-31T04:29:01.583Z,99.90
2022-08-31T04:31:29.286Z,99.90
2022-08-31T04:33:57.593Z,99.90
2022-08-31T04:36:27.758Z,99.90
2022-08-31T04:38:57.938Z,99.90
2022-08-31T04:41:26.789Z,99.90
2022-08-31T04:43:56.844Z,99.90
2022-08-31T04:46:24.004Z,99.90
2022-08-31T04:48:51.320Z,99.90
2022-08-31T04:51:27.166Z,99.90
2022-08-31T04:53:55.105Z,99.90
2022-08-31T04:56:25.753Z,99.90
2022-08-31T04:58:59.295Z,99.90
2022-08-31T05:01:29.510Z,99.90
2022-08-31T05:04:04.523Z,99.90
2022-08-31T05:06:33.444Z,99.90
2022-08-31T05:09:07.667Z,99.90
2022-08-31T05:11:35.173Z,99.90
2022-08-31T05:14:05.310Z,99.90
2022-08-31T05:16:33.676Z,99.90
2022-08-31T05:19:01.612Z,99.90
2022-08-31T05:21:32.058Z,99.90
2022-08-31T05:24:05.358Z,99.90
2022-08-31T05:26:35.194Z,99.90
2022-08-31T05:29:06.873Z,99.90
2022-08-31T05:31:36.168Z,99.90
2022-08-31T05:34:03.815Z,99.90
2022-08-31T05:36:31.064Z,99.90
2022-08-31T05:39:01.265Z,99.90
2022-08-31T05:41:30.237Z,99.90
2022-08-31T05:43:57.571Z,99.90
2022-08-31T05:46:24.630Z,99.90
2022-08-31T05:48:51.570Z,99.90
2022-08-31T05:51:19.428Z,99.90
2022-08-31T05:53:48.291Z,99.90
2022-08-31T05:56:20.175Z,99.90
2022-08-31T05:58:50.534Z,99.90
2022-08-31T06:01:25.121Z,99.90
2022-08-31T06:03:54.090Z,99.90
2022-08-31T06:06:21.637Z,99.90
2022-08-31T06:08:52.147Z,99.90
2022-08-31T06:11:21.723Z,99.90
2022-08-31T06:13:50.582Z,99.90
2022-08-31T06:16:18.597Z,99.90
2022-08-31T06:18:53.083Z,99.90
2022-08-31T06:21:26.569Z,99.90
2022-08-31T06:23:58.334Z,99.90
2022-08-31T06:26:28.549Z,99.90
2022-08-31T06:29:01.264Z,99.90
2022-08-31T06:31:34.450Z,99.90
2022-08-31T06:34:03.034Z,99.90
2022-08-31T06:36:32.031Z,99.90
2022-08-31T06:39:00.674Z,99.90
2022-08-31T06:41:37.053Z,99.90
2022-08-31T06:44:10.882Z,99.90
2022-08-31T06:46:40.166Z,99.90
2022-08-31T06:49:08.554Z,99.90
2022-08-31T06:51:38.025Z,99.70
2022-08-31T06:54:28.395Z,98.20
2022-08-31T06:57:00.193Z,97.70
2022-08-31T06:59:29.967Z,97.00
2022-08-31T07:02:01.066Z,96.60
2022-08-31T07:04:34.772Z,96.40
2022-08-31T07:07:02.523Z,96.70
2022-08-31T07:09:29.768Z,97.00
2022-08-31T07:11:58.478Z,97.10
2022-08-31T07:14:27.829Z,96.30
2022-08-31T07:16:56.871Z,96.20
2022-08-31T07:19:24.955Z,94.50
2022-08-31T07:21:54.975Z,93.50
2022-08-31T07:24:25.243Z,92.60
2022-08-31T07:26:58.782Z,91.10
2022-08-31T07:29:30.343Z,92.00
2022-08-31T07:31:59.446Z,92.40
2022-08-31T07:34:29.661Z,93.10
2022-08-31T07:37:18.261Z,94.10
2022-08-31T07:40:07.936Z,94.40
2022-08-31T07:42:43.454Z,94.90
2022-08-31T07:45:22.893Z,95.50
2022-08-31T07:47:55.060Z,96.10
2022-08-31T07:50:22.770Z,96.50
2022-08-31T07:52:54.638Z,96.90
2022-08-31T07:55:23.889Z,97.00
2022-08-31T07:57:53.526Z,97.40
2022-08-31T08:00:24.138Z,97.70
2022-08-31T08:02:53.406Z,97.50
2022-08-31T08:05:28.677Z,97.70
2022-08-31T08:08:09.338Z,97.70
2022-08-31T08:10:43.606Z,98.00
2022-08-31T08:13:14.206Z,98.20
2022-08-31T08:15:41.425Z,98.40
2022-08-31T08:18:10.924Z,98.30
2022-08-31T08:20:39.162Z,98.60
2022-08-31T08:23:15.028Z,98.80
2022-08-31T08:25:43.703Z,98.80
2022-08-31T08:31:06.106Z,99.10
2022-08-31T08:33:35.741Z,98.80
2022-08-31T08:36:07.947Z,98.70
2022-08-31T08:38:39.095Z,98.90
2022-08-31T08:41:15.810Z,99.00
2022-08-31T08:43:52.527Z,99.00
2022-08-31T08:46:35.188Z,98.80
2022-08-31T08:49:16.743Z,98.80
2022-08-31T08:51:47.339Z,99.00
2022-08-31T08:54:20.782Z,98.80
2022-08-31T08:56:49.292Z,99.00
2022-08-31T08:59:20.359Z,98.80
2022-08-31T09:01:50.968Z,98.40
2022-08-31T09:04:30.878Z,98.60
2022-08-31T09:07:22.023Z,98.30
2022-08-31T09:10:11.974Z,98.30
2022-08-31T09:12:58.043Z,98.30
2022-08-31T09:16:10.191Z,98.10
2022-08-31T09:18:47.140Z,98.20
2022-08-31T09:21:22.181Z,98.00
2022-08-31T09:24:03.302Z,98.00
2022-08-31T09:26:35.579Z,98.00
2022-08-31T09:29:09.980Z,98.10
2022-08-31T09:31:42.443Z,97.80
2022-08-31T09:34:25.977Z,97.30
2022-08-31T09:37:01.585Z,97.00
2022-08-31T09:39:33.024Z,97.10
2022-08-31T09:42:15.798Z,96.70
2022-08-31T09:44:48.283Z,96.90
2022-08-31T09:47:38.349Z,96.60
2022-08-31T09:50:09.322Z,96.10
2022-08-31T09:52:58.739Z,95.40
2022-08-31T09:55:28.204Z,95.30
2022-08-31T09:58:11.488Z,95.20
2022-08-31T10:00:42.968Z,95.40
2022-08-31T10:03:24.320Z,94.40
2022-08-31T10:05:54.470Z,93.70
2022-08-31T10:08:37.540Z,93.80
2022-08-31T10:11:13.526Z,92.80
2022-08-31T10:13:57.248Z,92.50
2022-08-31T10:16:31.395Z,92.10
2022-08-31T10:19:06.521Z,92.20
2022-08-31T10:21:54.408Z,92.50
2022-08-31T10:24:38.127Z,91.80
2022-08-31T10:27:38.592Z,91.80
2022-08-31T10:30:22.574Z,91.50
2022-08-31T10:33:05.903Z,91.20
2022-08-31T10:35:57.661Z,91.30
2022-08-31T10:38:36.053Z,91.20
2022-08-31T10:41:16.470Z,90.50
2022-08-31T10:43:59.216Z,90.50
2022-08-31T10:46:26.391Z,90.80
2022-08-31T10:48:55.023Z,90.60
2022-08-31T10:51:28.881Z,90.40
2022-08-31T10:54:18.402Z,90.50
2022-08-31T10:57:21.398Z,90.00
2022-08-31T11:00:30.009Z,89.00
2022-08-31T11:03:27.190Z,87.50
2022-08-31T11:06:06.653Z,89.10
2022-08-31T11:08:49.783Z,89.00
2022-08-31T11:11:28.555Z,89.10
2022-08-31T11:14:29.276Z,88.60
2022-08-31T11:17:23.331Z,89.10
2022-08-31T11:20:19.817Z,87.70
2022-08-31T11:22:56.553Z,86.60
2022-08-31T11:25:25.159Z,86.20
2022-08-31T11:28:00.456Z,86.70
2022-08-31T11:30:33.501Z,84.70
2022-08-31T11:33:09.215Z,83.30
2022-08-31T11:35:49.718Z,83.40
2022-08-31T11:39:15.128Z,82.90
2022-08-31T11:41:46.923Z,83.30
2022-08-31T11:44:32.988Z,83.30
2022-08-31T11:47:14.462Z,83.10
2022-08-31T11:49:47.914Z,83.10
2022-08-31T11:52:29.121Z,81.70
2022-08-31T11:55:03.512Z,80.50
2022-08-31T11:57:36.885Z,79.70
2022-08-31T12:00:19.597Z,80.10
2022-08-31T12:03:01.164Z,80.40
2022-08-31T12:05:56.216Z,79.90
2022-08-31T12:08:28.015Z,79.40
2022-08-31T12:11:06.889Z,78.30
2022-08-31T12:13:49.085Z,77.70
2022-08-31T12:16:47.520Z,77.00
2022-08-31T12:19:46.688Z,77.20
2022-08-31T12:22:56.863Z,77.10
2022-08-31T12:26:02.765Z,77.00
2022-08-31T12:29:02.313Z,77.20
2022-08-31T12:31:29.581Z,77.30
2022-08-31T12:34:11.544Z,77.00
2022-08-31T12:36:40.330Z,75.90
2022-08-31T12:39:25.593Z,75.00
2022-08-31T12:41:52.465Z,75.10
2022-08-31T12:44:23.830Z,74.90
2022-08-31T12:47:09.845Z,74.80
2022-08-31T12:49:58.561Z,74.20
2022-08-31T12:52:44.415Z,74.10
2022-08-31T12:55:33.577Z,73.70
2022-08-31T12:58:18.854Z,73.40
2022-08-31T13:00:46.542Z,73.80
2022-08-31T13:03:31.894Z,74.80
2022-08-31T13:06:08.804Z,73.00
2022-08-31T13:08:43.262Z,70.70
2022-08-31T13:11:42.550Z,71.10
2022-08-31T13:14:26.874Z,70.60
2022-08-31T13:17:06.420Z,70.90
2022-08-31T13:19:35.727Z,71.20
2022-08-31T13:22:18.012Z,70.60
2022-08-31T13:24:53.973Z,69.80
2022-08-31T13:27:25.527Z,68.90
2022-08-31T13:29:56.409Z,68.70
2022-08-31T13:32:34.168Z,68.10
2022-08-31T13:35:10.502Z,67.30
2022-08-31T13:37:44.686Z,66.90
2022-08-31T13:40:17.506Z,66.30
2022-08-31T13:42:50.778Z,66.20
2022-08-31T13:45:29.175Z,66.80
2022-08-31T13:48:07.875Z,66.90
2022-08-31T13:50:52.741Z,66.90
2022-08-31T13:53:41.519Z,67.70
2022-08-31T13:56:41.821Z,66.90
2022-08-31T13:59:23.948Z,67.30
2022-08-31T14:01:57.950Z,67.70
2022-08-31T14:04:44.325Z,67.50
2022-08-31T14:07:20.351Z,66.90
2022-08-31T14:09:56.097Z,67.00
2022-08-31T14:12:45.923Z,65.90
2022-08-31T14:15:18.192Z,65.70
2022-08-31T14:21:16.906Z,66.70
2022-08-31T14:23:51.740Z,66.60
2022-08-31T14:26:26.056Z,66.80
2022-08-31T14:29:00.531Z,66.50
2022-08-31T14:31:45.069Z,66.30
2022-08-31T14:34:30.477Z,66.30
2022-08-31T14:37:07.273Z,66.20
2022-08-31T14:39:48.638Z,65.70
2022-08-31T14:42:19.379Z,65.80
2022-08-31T14:44:58.919Z,66.00
2022-08-31T14:47:33.026Z,65.60
2022-08-31T14:50:05.893Z,65.40
2022-08-31T14:52:41.523Z,65.40
2022-08-31T14:55:11.196Z,65.70
2022-08-31T14:57:46.267Z,65.10
2022-08-31T15:00:23.326Z,64.80
2022-08-31T15:02:55.775Z,64.90
2022-08-31T15:05:25.153Z,65.30
2022-08-31T15:07:54.841Z,64.80
2022-08-31T15:10:27.135Z,64.60
2022-08-31T15:12:55.257Z,64.20
2022-08-31T15:15:22.403Z,63.90
2022-08-31T15:17:51.946Z,64.20
2022-08-31T15:20:22.776Z,63.80
2022-08-31T15:22:50.165Z,63.70
2022-08-31T15:25:23.244Z,64.10
2022-08-31T15:27:51.378Z,63.30
2022-08-31T15:30:20.217Z,63.20
2022-08-31T15:32:48.695Z,63.60
2022-08-31T15:35:19.804Z,63.20
2022-08-31T15:38:01.379Z,62.70
2022-08-31T15:40:40.745Z,62.70
2022-08-31T15:43:11.658Z,63.20
2022-08-31T15:45:38.618Z,63.00
2022-08-31T15:48:24.083Z,62.60
2022-08-31T15:50:58.913Z,63.20
2022-08-31T15:53:29.855Z,63.00
2022-08-31T15:56:06.201Z,62.60
2022-08-31T15:58:33.948Z,62.60
2022-08-31T16:01:01.491Z,62.10
2022-08-31T16:03:35.195Z,62.50
2022-08-31T16:06:04.082Z,62.70
2022-08-31T16:08:31.153Z,63.00
2022-08-31T16:10:58.144Z,62.80
2022-08-31T16:13:25.189Z,62.70
2022-08-31T16:15:52.656Z,62.70
2022-08-31T16:18:21.747Z,62.60
2022-08-31T16:20:50.334Z,63.00
2022-08-31T16:23:17.363Z,63.20
2022-08-31T16:25:48.651Z,63.50
2022-08-31T16:28:18.250Z,62.80
2022-08-31T16:30:45.417Z,62.80
2022-08-31T16:33:12.436Z,62.80
2022-08-31T16:35:39.700Z,62.50
2022-08-31T16:38:07.132Z,62.30
2022-08-31T16:40:35.409Z,62.50
2022-08-31T16:43:03.111Z,62.30
2022-08-31T16:45:30.096Z,62.30
2022-08-31T16:48:17.087Z,61.70
2022-08-31T16:50:47.586Z,60.50
2022-08-31T16:53:18.506Z,60.70
2022-08-31T16:55:49.802Z,60.70
2022-08-31T16:58:34.601Z,61.00
2022-08-31T17:01:08.826Z,60.70
2022-08-31T17:03:36.064Z,60.50
2022-08-31T17:06:03.412Z,61.00
2022-08-31T17:08:31.592Z,60.70
2022-08-31T17:11:05.492Z,60.70
2022-08-31T17:13:33.303Z,60.90
2022-08-31T17:16:00.836Z,61.50
2022-08-31T17:18:28.239Z,61.80
2022-08-31T17:20:57.359Z,62.20
2022-08-31T17:23:25.947Z,62.50
2022-08-31T17:25:52.926Z,63.10
2022-08-31T17:28:25.995Z,63.20
2022-08-31T17:30:52.963Z,63.60
2022-08-31T17:33:24.221Z,63.70
2022-08-31T17:35:52.032Z,63.80
2022-08-31T17:38:19.021Z,64.00
2022-08-31T17:40:46.095Z,64.30
2022-08-31T17:43:14.947Z,64.50
2022-08-31T17:45:41.801Z,64.40
2022-08-31T17:48:08.737Z,64.50
2022-08-31T17:50:42.213Z,64.50
2022-08-31T17:53:09.413Z,64.70
2022-08-31T17:55:36.554Z,64.80
2022-08-31T17:58:03.517Z,65.50
2022-08-31T18:00:32.983Z,64.80
2022-08-31T18:02:59.977Z,64.80
2022-08-31T18:05:27.706Z,65.10
2022-08-31T18:07:54.613Z,65.30
2022-08-31T18:10:21.539Z,65.60
2022-08-31T18:12:48.480Z,65.50
2022-08-31T18:15:18.858Z,66.20
2022-08-31T18:17:47.703Z,66.50
2022-08-31T18:20:15.055Z,66.80
2022-08-31T18:22:43.463Z,67.90
2022-08-31T18:25:10.765Z,68.30
2022-08-31T18:27:42.459Z,68.30
2022-08-31T18:30:15.186Z,68.70
2022-08-31T18:32:47.310Z,69.40
2022-08-31T18:35:17.847Z,69.70
2022-08-31T18:37:45.563Z,70.40
2022-08-31T18:40:32.376Z,71.30
2022-08-31T18:43:18.339Z,71.30
2022-08-31T18:45:51.690Z,71.70
2022-08-31T18:48:26.854Z,72.70
2022-08-31T18:50:55.661Z,73.00
2022-08-31T18:53:27.737Z,73.30
2022-08-31T18:56:07.834Z,73.60
2022-08-31T18:58:35.715Z,73.80
2022-08-31T19:01:03.328Z,73.90
2022-08-31T19:03:30.559Z,74.30
2022-08-31T19:05:57.653Z,74.90
2022-08-31T19:08:26.235Z,75.00
2022-08-31T19:10:56.194Z,75.70
2022-08-31T19:13:24.462Z,75.60
2022-08-31T19:15:57.948Z,76.30
2022-08-31T19:18:28.604Z,76.00
2022-08-31T19:20:55.491Z,76.40
2022-08-31T19:23:22.586Z,77.50
2022-08-31T19:25:49.770Z,77.50
2022-08-31T19:28:16.671Z,77.90
2022-08-31T19:30:48.697Z,78.50
2022-08-31T19:33:16.192Z,79.10
2022-08-31T19:35:44.216Z,79.50
2022-08-31T19:38:11.963Z,79.50
2022-08-31T19:40:42.843Z,80.00
2022-08-31T19:46:09.511Z,79.90
2022-08-31T19:48:44.025Z,80.70
2022-08-31T19:51:14.327Z,80.40
2022-08-31T19:53:45.387Z,80.60
2022-08-31T19:56:17.798Z,81.00
2022-08-31T19:58:49.555Z,80.60
2022-08-31T20:01:25.383Z,81.10
2022-08-31T20:03:55.121Z,81.40
2022-08-31T20:06:25.608Z,81.50
2022-08-31T20:08:53.438Z,81.70
2022-08-31T20:11:29.575Z,81.40
2022-08-31T20:13:58.749Z,81.50
2022-08-31T20:16:33.887Z,81.60
2022-08-31T20:19:04.592Z,82.00
2022-08-31T20:21:34.604Z,82.40
2022-08-31T20:24:08.336Z,82.10
2022-08-31T20:26:46.137Z,82.60
2022-08-31T20:29:18.325Z,83.00
2022-08-31T20:31:48.819Z,83.70
2022-08-31T20:34:19.046Z,84.80
2022-08-31T20:36:48.175Z,85.30
2022-08-31T20:39:17.224Z,85.40
2022-08-31T20:41:52.240Z,85.80
2022-08-31T20:44:24.860Z,85.90
2022-08-31T20:47:12.829Z,85.90
2022-08-31T20:49:53.491Z,86.60
2022-08-31T20:52:22.247Z,86.80
2022-08-31T20:54:52.595Z,86.80
2022-08-31T20:57:30.610Z,87.20
2022-08-31T20:59:57.817Z,87.30
2022-08-31T21:02:24.910Z,88.20
2022-08-31T21:04:51.936Z,88.10
2022-08-31T21:07:23.160Z,88.40
2022-08-31T21:09:50.525Z,89.20
2022-08-31T21:12:18.654Z,89.30
2022-08-31T21:14:46.200Z,90.00
2022-08-31T21:17:14.199Z,90.00
2022-08-31T21:19:43.437Z,90.40
2022-08-31T21:22:13.301Z,90.50
2022-08-31T21:24:43.378Z,90.90
2022-08-31T21:27:14.023Z,90.90
2022-08-31T21:29:41.394Z,91.20
2022-08-31T21:32:09.972Z,91.30
2022-08-31T21:34:37.353Z,91.60
2022-08-31T21:37:05.050Z,91.70
2022-08-31T21:39:32.448Z,91.90
2022-08-31T21:41:59.913Z,92.00
2022-08-31T21:44:27.594Z,92.20
2022-08-31T21:46:54.635Z,92.30
2022-08-31T21:49:21.664Z,92.50
2022-08-31T21:51:52.100Z,93.00
2022-08-31T21:54:21.805Z,93.20
2022-08-31T21:56:51.908Z,93.20
2022-08-31T21:59:20.960Z,93.20
2022-08-31T22:01:48.552Z,93.70
2022-08-31T22:04:16.431Z,94.00
2022-08-31T22:06:44.479Z,94.00
2022-08-31T22:09:15.725Z,94.50
2022-08-31T22:11:45.900Z,94.90
2022-08-31T22:14:16.835Z,95.10
2022-08-31T22:16:46.444Z,95.30
2022-08-31T22:19:15.537Z,95.50
2022-08-31T22:21:48.563Z,95.60
2022-08-31T22:24:27.844Z,95.90
2022-08-31T22:26:57.243Z,96.20
2022-08-31T22:29:27.289Z,96.70
2022-08-31T22:31:57.701Z,96.80
2022-08-31T22:34:25.715Z,97.20
2022-08-31T22:36:53.921Z,97.80
2022-08-31T22:39:25.088Z,97.90
2022-08-31T22:41:53.176Z,98.20
2022-08-31T22:44:23.287Z,98.40
2022-08-31T22:46:50.671Z,98.80
2022-08-31T22:49:17.741Z,99.40
2022-08-31T22:51:48.234Z,99.80
2022-08-31T22:54:18.469Z,99.70
2022-08-31T22:56:45.679Z,99.90
2022-08-31T22:59:16.350Z,99.90
2022-08-31T23:01:50.501Z,99.90
2022-08-31T23:04:20.192Z,99.90
2022-08-31T23:06:49.519Z,99.90
2022-08-31T23:09:20.998Z,99.90
2022-08-31T23:11:51.216Z,99.90
2022-08-31T23:14:19.674Z,99.90
2022-08-31T23:16:56.965Z,99.90
2022-08-31T23:19:32.763Z,99.90
2022-08-31T23:22:01.786Z,99.90
2022-08-31T23:24:37.588Z,99.90
2022-08-31T23:27:05.661Z,99.90
2022-08-31T23:29:35.177Z,99.90
2022-08-31T23:32:02.916Z,99.90
2022-08-31T23:34:30.317Z,99.90
2022-08-31T23:36:57.544Z,99.90
2022-08-31T23:39:24.878Z,99.90
2022-08-31T23:41:53.233Z,99.90
2022-08-31T23:44:24.573Z,99.90
2022-08-31T23:46:51.554Z,99.90
2022-08-31T23:49:19.919Z,99.90
2022-08-31T23:51:47.488Z,99.90
2022-08-31T23:54:16.188Z,99.90
2022-08-31T23:56:45.841Z,99.90
2022-08-31T23:59:18.729Z,99.90
